Date,TemperatureHighF,TemperatureAvgF,TemperatureLowF,DewpointHighF,DewpointAvgF,DewpointLowF,HumidityHigh,HumidityAvg,HumidityLow,PressureMaxIn,PressureMinIn,WindSpeedMaxMPH,WindSpeedAvgMPH,GustSpeedMaxMPH,PrecipitationSumIn
2013-1-1,30,19,8,-100,-100,-100,0,0,100,0.00,40.00,0,-999,0,0.00
2013-1-2,30,26,21,-100,-100,-100,0,0,100,0.00,40.00,0,-999,0,0.00
2013-1-3,36,21,7,-100,-100,-100,0,0,100,0.00,40.00,0,-999,0,0.00
2013-1-4,43,21,8,-100,-100,-100,0,0,100,0.00,40.00,0,-999,0,0.00
2013-1-5,40,26,16,-100,-100,-100,0,0,100,0.00,40.00,0,-999,0,0.00
2013-1-6,51,23,4,-100,-100,-100,0,0,100,0.00,40.00,0,-999,0,0.00
2013-1-7,52,32,21,-100,-100,-100,0,0,100,0.00,40.00,0,-999,0,0.00
2013-1-8,50,40,32,-100,-100,-100,0,0,100,0.00,40.00,0,-999,0,0.00
2013-1-9,58,42,31,-100,-100,-100,0,0,100,0.00,40.00,0,-999,0,0.00
2013-1-10,53,36,27,-100,-100,-100,0,0,100,0.00,40.00,0,-999,0,0.00
2013-1-11,32,22,9,-100,-100,-100,0,0,100,0.00,40.00,0,-999,0,0.00
2013-1-12,11,8,3,-100,-100,-100,0,0,100,0.00,40.00,0,-999,0,0.00
2013-1-13,16,8,2,-100,-100,-100,0,0,100,0.00,40.00,0,-999,0,0.00
2013-1-14,18,3,-8,-100,-100,-100,0,0,100,0.00,40.00,0,-999,0,0.00
2013-1-15,31,14,-3,-100,-100,-100,0,0,100,0.00,40.00,0,-999,0,0.00
2013-1-16,45,34,26,-100,-100,-100,0,0,100,0.00,40.00,0,-999,0,0.00
2013-1-17,50,30,18,-100,-100,-100,0,0,100,0.00,40.00,0,-999,0,0.00
2013-1-18,54,39,21,-100,-100,-100,0,0,100,0.00,40.00,0,-999,0,0.00
2013-1-19,53,38,30,-100,-100,-100,0,0,100,0.00,40.00,0,-999,0,0.00
2013-1-20,36,27,12,-100,-100,-100,0,0,100,0.00,40.00,0,-999,0,0.00
2013-1-21,41,20,7,-100,-100,-100,0,0,100,0.00,40.00,0,-999,0,0.00
2013-1-22,54,30,12,-100,-100,-100,0,0,100,0.00,40.00,0,-999,0,0.00
2013-1-23,51,32,21,-100,-100,-100,0,0,100,0.00,40.00,0,-999,0,0.00
2013-1-24,64,39,18,-100,-100,-100,0,0,100,0.00,40.00,0,-999,0,0.00
2013-1-25,60,36,17,-100,-100,-100,0,0,100,0.00,40.00,0,-999,0,0.00
2013-1-26,61,41,19,-100,-100,-100,0,0,100,0.00,40.00,0,-999,0,0.00
2013-1-27,58,43,29,-100,-100,-100,0,0,100,0.00,40.00,0,-999,0,0.00
2013-1-28,32,29,25,-100,-100,-100,0,0,100,0.00,40.00,0,-999,0,0.00
2013-1-29,30,24,15,-100,-100,-100,0,0,100,0.00,40.00,0,-999,0,0.00
2013-1-30,34,11,4,-100,-100,-100,0,0,100,0.00,40.00,0,-999,0,0.00
2013-1-31,30,24,16,-100,-100,-100,0,0,100,0.00,40.00,0,-999,0,0.00
2013-2-1,50,32,20,-100,-100,-100,0,0,100,0.00,40.00,0,-999,0,0.00
2013-2-2,50,34,24,-100,-100,-100,0,0,100,0.00,40.00,0,-999,0,0.00
2013-2-3,55,33,16,-100,-100,-100,0,0,100,0.00,40.00,0,-999,0,0.00
2013-2-4,52,37,25,-100,-100,-100,0,0,100,0.00,40.00,0,-999,0,0.00
2013-2-5,57,38,22,-100,-100,-100,0,0,100,0.00,40.00,0,-999,0,0.00
2013-2-6,53,38,32,-100,-100,-100,0,0,100,0.00,40.00,0,-999,0,0.00
2013-2-7,52,33,22,-100,-100,-100,0,0,100,0.00,40.00,0,-999,0,0.00
2013-2-8,54,38,22,-100,-100,-100,0,0,100,0.00,40.00,0,-999,0,0.00
2013-2-9,29,25,18,-100,-100,-100,0,0,100,0.00,40.00,0,-999,0,0.00
2013-2-10,31,27,20,-100,-100,-100,0,0,100,0.00,40.00,0,-999,0,0.00
2013-2-11,34,21,9,-100,-100,-100,0,0,100,0.00,40.00,0,-999,0,0.00
2013-2-12,42,26,14,-100,-100,-100,0,0,100,0.00,40.00,0,-999,0,0.00
2013-2-13,48,35,19,-100,-100,-100,0,0,100,0.00,40.00,0,-999,0,0.00
2013-2-14,36,28,16,-100,-100,-100,0,0,100,0.00,40.00,0,-999,0,0.00
2013-2-15,29,22,14,-100,-100,-100,0,0,100,0.00,40.00,0,-999,0,0.00
2013-2-16,53,37,24,-100,-100,-100,0,0,100,0.00,40.00,0,-999,0,0.00
2013-2-17,58,40,17,-100,-100,-100,0,0,100,0.00,40.00,0,-999,0,0.00
2013-2-18,35,29,14,-100,-100,-100,0,0,100,0.00,40.00,0,-999,0,0.00
2013-2-19,43,25,10,-100,-100,-100,0,0,100,0.00,40.00,0,-999,0,0.00
2013-2-20,27,21,16,-100,-100,-100,0,0,100,0.00,40.00,0,-999,0,0.00
2013-2-21,24,20,17,-100,-100,-100,0,0,100,0.00,40.00,0,-999,0,0.00
2013-2-22,37,25,14,-100,-100,-100,0,0,100,0.00,40.00,0,-999,0,0.00
2013-2-23,47,33,16,-100,-100,-100,0,0,100,0.00,40.00,0,-999,0,0.00
2013-2-24,34,31,29,-100,-100,-100,0,0,100,0.00,40.00,0,-999,0,0.00
2013-2-25,40,28,14,-100,-100,-100,0,0,100,0.00,40.00,0,-999,0,0.00
2013-2-26,40,25,12,-100,-100,-100,0,0,100,0.00,40.00,0,-999,0,0.00
2013-2-27,40,30,25,-100,-100,-100,0,0,100,0.00,40.00,0,-999,0,0.00
2013-2-28,43,30,14,-100,-100,-100,0,0,100,0.00,40.00,0,-999,0,0.00
2013-3-1,45,36,23,-100,-100,-100,0,0,100,0.00,40.00,0,-999,0,0.00
2013-3-2,60,46,33,-100,-100,-100,0,0,100,0.00,40.00,0,-999,0,0.00
2013-3-3,62,46,32,-100,-100,-100,0,0,100,0.00,40.00,0,-999,0,0.00
2013-3-4,38,31,19,-100,-100,-100,0,0,100,0.00,40.00,0,-999,0,0.00
2013-3-5,46,27,14,-100,-100,-100,0,0,100,0.00,40.00,0,-999,0,0.00
2013-3-6,59,35,16,-100,-100,-100,0,0,100,0.00,40.00,0,-999,0,0.00
2013-3-7,63,41,18,-100,-100,-100,0,0,100,0.00,40.00,0,-999,0,0.00
2013-3-8,47,33,21,-100,-100,-100,0,0,100,0.00,40.00,0,-999,0,0.00
2013-3-9,38,32,28,-100,-100,-100,0,0,100,0.00,40.00,0,-999,0,0.00
2013-3-10,45,32,22,-100,-100,-100,0,0,100,0.00,40.00,0,-999,0,0.00
2013-3-11,44,34,24,-100,-100,-100,0,0,100,0.00,40.00,0,-999,0,0.00
2013-3-12,45,34,28,-100,-100,-100,0,0,100,0.00,40.00,0,-999,0,0.00
2013-3-13,65,41,20,-100,-100,-100,0,0,100,0.00,40.00,0,-999,0,0.00
2013-3-14,73,52,36,-100,-100,-100,0,0,100,0.00,40.00,0,-999,0,0.00
2013-3-15,74,56,38,-100,-100,-100,0,0,100,0.00,40.00,0,-999,0,0.00
2013-3-16,58,47,34,-100,-100,-100,0,0,100,0.00,40.00,0,-999,0,0.00
2013-3-17,56,38,28,-100,-100,-100,0,0,100,0.00,40.00,0,-999,0,0.00
2013-3-18,43,31,14,-100,-100,-100,0,0,100,0.00,40.00,0,-999,0,0.00
2013-3-19,43,34,19,-100,-100,-100,0,0,100,0.00,40.00,0,-999,0,0.00
2013-3-20,58,36,14,-100,-100,-100,0,0,100,0.00,40.00,0,-999,0,0.00
2013-3-21,52,37,25,-100,-100,-100,0,0,100,0.00,40.00,0,-999,0,0.00
2013-3-22,44,35,29,-100,-100,-100,0,0,100,0.00,40.00,0,-999,0,0.00
2013-3-23,31,23,14,-100,-100,-100,0,0,100,0.00,40.00,0,-999,0,0.00
2013-3-24,29,18,7,-100,-100,-100,0,0,100,0.00,40.00,0,-999,0,0.00
2013-3-25,41,20,7,-100,-100,-100,0,0,100,0.00,40.00,0,-999,0,0.00
2013-3-26,56,31,11,-100,-100,-100,0,0,100,0.00,40.00,0,-999,0,0.00
2013-3-27,60,46,34,-100,-100,-100,0,0,100,0.00,40.00,0,-999,0,0.00
2013-3-28,66,48,30,-100,-100,-100,0,0,100,0.00,40.00,0,-999,0,0.00
2013-3-29,69,49,28,-100,-100,-100,0,0,100,0.00,40.00,0,-999,0,0.00
2013-3-30,57,45,30,-100,-100,-100,0,0,100,0.00,40.00,0,-999,0,0.00
2013-3-31,65,46,27,-100,-100,-100,0,0,100,0.00,40.00,0,-999,0,0.00
2013-4-1,56,42,23,-100,-100,-100,0,0,100,0.00,40.00,0,-999,0,0.00
2013-4-2,59,42,26,-100,-100,-100,0,0,100,0.00,40.00,0,-999,0,0.00
2013-4-3,69,48,25,-100,-100,-100,0,0,100,0.00,40.00,0,-999,0,0.00
2013-4-4,71,53,34,-100,-100,-100,0,0,100,0.00,40.00,0,-999,0,0.00
2013-4-5,74,62,49,-100,-100,-100,0,0,100,0.00,40.00,0,-999,0,0.00
2013-4-6,65,52,38,-100,-100,-100,0,0,100,0.00,40.00,0,-999,0,0.00
2013-4-7,67,57,46,-100,-100,-100,0,0,100,0.00,40.00,0,-999,0,0.00
2013-4-8,60,44,21,-100,-100,-100,0,0,100,0.00,40.00,0,-999,0,0.00
2013-4-9,21,14,12,-100,-100,-100,0,0,100,0.00,40.00,0,-999,0,0.00
2013-4-10,25,18,12,-100,-100,-100,0,0,100,0.00,40.00,0,-999,0,0.00
2013-4-11,41,26,7,-100,-100,-100,0,0,100,0.00,40.00,0,-999,0,0.00
2013-4-12,44,38,30,-100,-100,-100,0,0,100,0.00,40.00,0,-999,0,0.00
2013-4-13,49,41,32,-100,-100,-100,0,0,100,0.00,40.00,0,-999,0,0.00
2013-4-14,48,39,31,-100,-100,-100,0,0,100,0.00,40.00,0,-999,0,0.00
2013-4-15,33,29,23,-100,-100,-100,0,0,100,0.00,40.00,0,-999,0,0.00
2013-4-16,32,28,26,-100,-100,-100,0,0,100,0.00,40.00,0,-999,0,0.00
2013-4-17,29,26,24,-100,-100,-100,0,0,100,0.00,40.00,0,-999,0,0.00
2013-4-18,31,25,16,-100,-100,-100,0,0,100,0.00,40.00,0,-999,0,0.00
2013-4-19,52,36,25,-100,-100,-100,0,0,100,0.00,40.00,0,-999,0,0.00
2013-4-20,61,48,36,-100,-100,-100,0,0,100,0.00,40.00,0,-999,0,0.00
2013-4-21,62,48,34,-100,-100,-100,0,0,100,0.00,40.00,0,-999,0,0.00
2013-4-22,43,33,25,-100,-100,-100,0,0,100,0.00,40.00,0,-999,0,0.00
2013-4-23,41,30,22,-100,-100,-100,0,0,100,0.00,40.00,0,-999,0,0.00
2013-4-24,51,37,20,-100,-100,-100,0,0,100,0.00,40.00,0,-999,0,0.00
2013-4-25,72,52,27,-100,-100,-100,0,0,100,0.00,40.00,0,-999,0,0.00
2013-4-26,73,52,29,-100,-100,-100,0,0,100,0.00,40.00,0,-999,0,0.00
2013-4-27,76,56,39,-100,-100,-100,0,0,100,0.00,40.00,0,-999,0,0.00
2013-4-28,74,59,39,-100,-100,-100,0,0,100,0.00,40.00,0,-999,0,0.00
2013-4-29,79,57,39,-100,-100,-100,0,0,100,0.00,40.00,0,-999,0,0.00
2013-4-30,66,47,34,-100,-100,-100,0,0,100,0.00,40.00,0,-999,0,0.00
2013-5-1,35,32,28,-100,-100,-100,0,0,100,0.00,40.00,0,-999,0,0.00
2013-5-2,49,37,25,-100,-100,-100,0,0,100,0.00,40.00,0,-999,0,0.00
2013-5-3,61,46,27,-100,-100,-100,0,0,100,0.00,40.00,0,-999,0,0.00
2013-5-4,57,46,35,-100,-100,-100,0,0,100,0.00,40.00,0,-999,0,0.00
2013-5-5,67,48,29,-100,-100,-100,0,0,100,0.00,40.00,0,-999,0,0.00
2013-5-6,74,58,36,-100,-100,-100,0,0,100,0.00,40.00,0,-999,0,0.00
2013-5-7,63,54,42,-100,-100,-100,0,0,100,0.00,40.00,0,-999,0,0.00
2013-5-8,69,53,39,-100,-100,-100,0,0,100,0.00,40.00,0,-999,0,0.00
2013-5-9,66,53,40,-100,-100,-100,0,0,100,0.00,40.00,0,-999,0,0.00
2013-5-10,71,57,40,-100,-100,-100,0,0,100,0.00,40.00,0,-999,0,0.00
2013-5-11,71,58,45,-100,-100,-100,0,0,100,0.00,40.00,0,-999,0,0.00
2013-5-12,80,65,42,-100,-100,-100,0,0,100,0.00,40.00,0,-999,0,0.00
2013-5-13,92,70,48,-100,-100,-100,0,0,100,0.00,40.00,0,-999,0,0.00
2013-5-14,93,75,52,-100,-100,-100,0,0,100,0.00,40.00,0,-999,0,0.00
2013-5-15,83,69,60,-100,-100,-100,0,0,100,0.00,40.00,0,-999,0,0.00
2013-5-16,85,67,58,-100,-100,-100,0,0,100,0.00,40.00,0,-999,0,0.00
2013-5-17,92,70,49,-100,-100,-100,0,0,100,0.00,40.00,0,-999,0,0.00
2013-5-18,80,68,58,-100,-100,-100,0,0,100,0.00,40.00,0,-999,0,0.00
2013-5-19,60,53,51,-100,-100,-100,0,0,100,0.00,40.00,0,-999,0,0.00
2013-5-20,54,50,47,-100,-100,-100,0,0,100,0.00,40.00,0,-999,0,0.00
2013-5-21,62,53,45,-100,-100,-100,0,0,100,0.00,40.00,0,-999,0,0.00
2013-5-22,67,50,40,-100,-100,-100,0,0,100,0.00,40.00,0,-999,0,0.00
2013-5-23,65,54,47,-100,-100,-100,0,0,100,0.00,40.00,0,-999,0,0.00
2013-5-24,86,70,58,-100,-100,-100,0,0,100,0.00,40.00,0,-999,0,0.00
2013-5-25,84,69,56,-100,-100,-100,0,0,100,0.00,40.00,0,-999,0,0.00
2013-5-26,80,67,53,-100,-100,-100,0,0,100,0.00,40.00,0,-999,0,0.00
2013-5-27,80,68,58,-100,-100,-100,0,0,100,0.00,40.00,0,-999,0,0.00
2013-5-28,83,62,43,-100,-100,-100,0,0,100,0.00,40.00,0,-999,0,0.00
2013-5-29,64,58,53,-100,-100,-100,0,0,100,0.00,40.00,0,-999,0,0.00
2013-5-30,72,58,47,-100,-100,-100,0,0,100,0.00,40.00,0,-999,0,0.00
2013-5-31,62,53,43,-100,-100,-100,0,0,100,0.00,40.00,0,-999,0,0.00
2013-6-1,65,54,47,-100,-100,-100,0,0,100,0.00,40.00,0,-999,0,0.00
2013-6-2,82,61,39,-100,-100,-100,0,0,100,0.00,40.00,0,-999,0,0.00
2013-6-3,87,67,50,-100,-100,-100,0,0,100,0.00,40.00,0,-999,0,0.00
2013-6-4,72,60,47,-100,-100,-100,0,0,100,0.00,40.00,0,-999,0,0.00
2013-6-5,66,55,47,-100,-100,-100,0,0,100,0.00,40.00,0,-999,0,0.00
2013-6-6,73,58,42,-100,-100,-100,0,0,100,0.00,40.00,0,-999,0,0.00
2013-6-7,83,61,45,-100,-100,-100,0,0,100,0.00,40.00,0,-999,0,0.00
2013-6-8,72,63,54,-100,-100,-100,0,0,100,0.00,40.00,0,-999,0,0.00
2013-6-9,83,65,45,-100,-100,-100,0,0,100,0.00,40.00,0,-999,0,0.00
2013-6-10,102,76,56,-100,-100,-100,0,0,100,0.00,40.00,0,-999,0,0.00
2013-6-11,91,77,64,-100,-100,-100,0,0,100,0.00,40.00,0,-999,0,0.00
2013-6-12,87,70,58,-100,-100,-100,0,0,100,0.00,40.00,0,-999,0,0.00
2013-6-13,80,66,51,-100,-100,-100,0,0,100,0.00,40.00,0,-999,0,0.00
2013-6-14,94,77,68,-100,-100,-100,0,0,100,0.00,40.00,0,-999,0,0.00
2013-6-15,76,65,58,-100,-100,-100,0,0,100,0.00,40.00,0,-999,0,0.00
2013-6-16,90,68,49,-100,-100,-100,0,0,100,0.00,40.00,0,-999,0,0.00
2013-6-17,80,64,51,-100,-100,-100,0,0,100,0.00,40.00,0,-999,0,0.00
2013-6-18,80,69,46,-100,-100,-100,0,0,100,0.00,40.00,0,-999,0,0.00
2013-6-19,90,70,51,-100,-100,-100,0,0,100,0.00,40.00,0,-999,0,0.00
2013-6-20,84,71,57,-100,-100,-100,0,0,100,0.00,40.00,0,-999,0,0.00
2013-6-22,73,64,60,-100,-100,-100,0,0,100,0.00,40.00,0,-999,0,0.00
2013-6-23,75,63,50,-100,-100,-100,0,0,100,0.00,40.00,0,-999,0,0.00
2013-6-24,95,79,65,-100,-100,-100,0,0,100,0.00,40.00,0,-999,0,0.00
2013-6-25,87,76,65,-100,-100,-100,0,0,100,0.00,40.00,0,-999,0,0.00
2013-6-26,101,79,56,-100,-100,-100,0,0,100,0.00,40.00,0,-999,0,0.00
2013-6-27,94,77,61,-100,-100,-100,0,0,100,0.00,40.00,0,-999,0,0.00
2013-6-28,89,76,61,-100,-100,-100,0,0,100,0.00,40.00,0,-999,0,0.00
2013-6-29,86,76,65,-100,-100,-100,0,0,100,0.00,40.00,0,-999,0,0.00
2013-6-30,84,70,56,-100,-100,-100,0,0,100,0.00,40.00,0,-999,0,0.00
2013-7-1,83,69,58,-100,-100,-100,0,0,100,0.00,40.00,0,-999,0,0.00
2013-7-2,83,68,52,-100,-100,-100,0,0,100,0.00,40.00,0,-999,0,0.00
2013-7-3,91,73,54,-100,-100,-100,0,0,100,0.00,40.00,0,-999,0,0.00
2013-7-4,94,75,58,-100,-100,-100,0,0,100,0.00,40.00,0,-999,0,0.00
2013-7-5,89,73,64,-100,-100,-100,0,0,100,0.00,40.00,0,-999,0,0.00
2013-7-6,89,72,63,-100,-100,-100,0,0,100,0.00,40.00,0,-999,0,0.00
2013-7-7,91,76,64,-100,-100,-100,0,0,100,0.00,40.00,0,-999,0,0.00
2013-7-8,94,71,62,-100,-100,-100,0,0,100,0.00,40.00,0,-999,0,0.00
2013-7-9,92,74,58,-100,-100,-100,0,0,100,0.00,40.00,0,-999,0,0.00
2013-7-10,92,76,64,-100,-100,-100,0,0,100,0.00,40.00,0,-999,0,0.00
2013-7-11,98,80,61,-100,-100,-100,0,0,100,0.00,40.00,0,-999,0,0.00
2013-7-12,91,78,66,-100,-100,-100,0,0,100,0.00,40.00,0,-999,0,0.00
2013-7-13,93,77,64,-100,-100,-100,0,0,100,0.00,40.00,0,-999,0,0.00
2013-7-14,75,69,65,-100,-100,-100,0,0,100,0.00,40.00,0,-999,0,0.00
2013-7-15,87,73,64,-100,-100,-100,0,0,100,0.00,40.00,0,-999,0,0.00
2013-7-16,88,74,54,-100,-100,-100,0,0,100,0.00,40.00,0,-999,0,0.00
2013-7-17,93,78,59,-100,-100,-100,0,0,100,0.00,40.00,0,-999,0,0.00
2013-7-18,94,83,63,-100,-100,-100,0,0,100,0.00,40.00,0,-999,0,0.00
2013-7-19,90,78,68,-100,-100,-100,0,0,100,0.00,40.00,0,-999,0,0.00
2013-7-20,88,73,58,-100,-100,-100,0,0,100,0.00,40.00,0,-999,0,0.00
2013-7-21,92,76,60,-100,-100,-100,0,0,100,0.00,40.00,0,-999,0,0.00
2013-7-22,92,77,62,-100,-100,-100,0,0,100,0.00,40.00,0,-999,0,0.00
2013-7-23,91,76,64,-100,-100,-100,0,0,100,0.00,40.00,0,-999,0,0.00
2013-7-24,90,70,59,-100,-100,-100,0,0,100,0.00,40.00,0,-999,0,0.00
2013-7-25,82,70,60,-100,-100,-100,0,0,100,0.00,40.00,0,-999,0,0.00
2013-7-26,87,71,57,-100,-100,-100,0,0,100,0.00,40.00,0,-999,0,0.00
2013-7-27,68,62,54,-100,-100,-100,0,0,100,0.00,40.00,0,-999,0,0.00
2013-7-28,73,64,58,-100,-100,-100,0,0,100,0.00,40.00,0,-999,0,0.00
2013-7-29,79,67,58,-100,-100,-100,0,0,100,0.00,40.00,0,-999,0,0.00
2013-7-30,90,74,59,-100,-100,-100,0,0,100,0.00,40.00,0,-999,0,0.00
2013-7-31,88,70,56,-100,-100,-100,0,0,100,0.00,40.00,0,-999,0,0.00
2013-8-1,97,77,65,-100,-100,-100,0,0,100,0.00,40.00,0,-999,0,0.00
2013-8-2,82,71,57,-100,-100,-100,0,0,100,0.00,40.00,0,-999,0,0.00
2013-8-3,70,67,63,-100,-100,-100,0,0,100,0.00,40.00,0,-999,0,0.00
2013-8-4,94,75,58,-100,-100,-100,0,0,100,0.00,40.00,0,-999,0,0.00
2013-8-5,87,77,61,-100,-100,-100,0,0,100,0.00,40.00,0,-999,0,0.00
2013-8-6,85,73,61,-100,-100,-100,0,0,100,0.00,40.00,0,-999,0,0.00
2013-8-7,79,68,55,-100,-100,-100,0,0,100,0.00,40.00,0,-999,0,0.00
2013-8-8,83,68,56,-100,-100,-100,0,0,100,0.00,40.00,0,-999,0,0.00
2013-8-9,90,69,55,-100,-100,-100,0,0,100,0.00,40.00,0,-999,0,0.00
2013-8-10,87,70,56,-100,-100,-100,0,0,100,0.00,40.00,0,-999,0,0.00
2013-8-11,82,70,62,-100,-100,-100,0,0,100,0.00,40.00,0,-999,0,0.00
2013-8-12,85,67,54,-100,-100,-100,0,0,100,0.00,40.00,0,-999,0,0.00
2013-8-13,80,68,51,-100,-100,-100,0,0,100,0.00,40.00,0,-999,0,0.00
2013-8-14,86,70,55,-100,-100,-100,0,0,100,0.00,40.00,0,-999,0,0.00
2013-8-15,87,72,58,-100,-100,-100,0,0,100,0.00,40.00,0,-999,0,0.00
2013-8-16,87,70,56,-100,-100,-100,0,0,100,0.00,40.00,0,-999,0,0.00
2013-8-17,89,71,59,-100,-100,-100,0,0,100,0.00,40.00,0,-999,0,0.00
2013-8-18,90,72,61,-100,-100,-100,0,0,100,0.00,40.00,0,-999,0,0.00
2013-8-19,97,77,57,-100,-100,-100,0,0,100,0.00,40.00,0,-999,0,0.00
2013-8-20,96,82,62,-100,-100,-100,0,0,100,0.00,40.00,0,-999,0,0.00
2013-8-21,87,75,67,-100,-100,-100,0,0,100,0.00,40.00,0,-999,0,0.00
2013-8-22,83,72,60,-100,-100,-100,0,0,100,0.00,40.00,0,-999,0,0.00
2013-8-23,95,79,63,-100,-100,-100,0,0,100,0.00,40.00,0,-999,0,0.00
2013-8-24,91,76,57,-100,-100,-100,0,0,100,0.00,40.00,0,-999,0,0.00
2013-8-25,92,77,61,-100,-100,-100,0,0,100,0.00,40.00,0,-999,0,0.00
2013-8-26,91,77,60,-100,-100,-100,0,0,100,0.00,40.00,0,-999,0,0.00
2013-8-27,89,72,64,-100,-100,-100,0,0,100,0.00,40.00,0,-999,0,0.00
2013-8-28,94,86,72,-100,-100,-100,0,0,100,0.00,40.00,0,-999,0,0.00
2013-8-29,96,77,58,-100,-100,-100,0,0,100,0.00,40.00,0,-999,0,0.00
2013-8-30,93,73,63,-100,-100,-100,0,0,100,0.00,40.00,0,-999,0,0.00
2013-8-31,92,75,59,-100,-100,-100,0,0,100,0.00,40.00,0,-999,0,0.00
2013-9-1,84,70,53,-100,-100,-100,0,0,100,0.00,40.00,0,-999,0,0.00
2013-9-2,97,76,54,-100,-100,-100,0,0,100,0.00,40.00,0,-999,0,0.00
2013-9-3,94,80,62,-100,-100,-100,0,0,100,0.00,40.00,0,-999,0,0.00
2013-9-4,94,78,61,-100,-100,-100,0,0,100,0.00,40.00,0,-999,0,0.00
2013-9-5,93,76,62,-100,-100,-100,0,0,100,0.00,40.00,0,-999,0,0.00
2013-9-6,98,79,66,-100,-100,-100,0,0,100,0.00,40.00,0,-999,0,0.00
2013-9-7,92,78,63,-100,-100,-100,0,0,100,0.00,40.00,0,-999,0,0.00
2013-9-8,91,72,58,-100,-100,-100,0,0,100,0.00,40.00,0,-999,0,0.00
2013-9-9,81,69,62,-100,-100,-100,0,0,100,0.00,40.00,0,-999,0,0.00
2013-9-10,75,66,61,-100,-100,-100,0,0,100,0.00,40.00,0,-999,0,0.00
2013-9-11,72,65,61,-100,-100,-100,0,0,100,0.00,40.00,0,-999,0,0.00
2013-9-12,76,68,60,-100,-100,-100,0,0,100,0.00,40.00,0,-999,0,0.00
2013-9-13,65,60,55,-100,-100,-100,0,0,100,0.00,40.00,0,-999,0,0.00
2013-9-14,84,67,57,-100,-100,-100,0,0,100,0.00,40.00,0,-999,0,0.00
2013-9-15,65,61,57,-100,-100,-100,0,0,100,0.00,40.00,0,-999,0,0.00
2013-9-16,69,59,54,-100,-100,-100,0,0,100,0.00,40.00,0,-999,0,0.00
2013-9-17,91,71,54,-100,-100,-100,0,0,100,0.00,40.00,0,-999,0,0.00
2013-9-18,74,64,61,-100,-100,-100,0,0,100,0.00,40.00,0,-999,0,0.00
2013-9-19,68,58,47,-100,-100,-100,0,0,100,0.00,40.00,0,-999,0,0.00
2013-9-20,73,51,39,-100,-100,-100,0,0,100,0.00,40.00,0,-999,0,0.00
2013-9-21,86,65,43,-100,-100,-100,0,0,100,0.00,40.00,0,-999,0,0.00
2013-9-22,87,66,50,-100,-100,-100,0,0,100,0.00,40.00,0,-999,0,0.00
2013-9-23,60,55,47,-100,-100,-100,0,0,100,0.00,40.00,0,-999,0,0.00
2013-9-24,78,58,41,-100,-100,-100,0,0,100,0.00,40.00,0,-999,0,0.00
2013-9-25,78,60,46,-100,-100,-100,0,0,100,0.00,40.00,0,-999,0,0.00
2013-9-26,73,59,47,-100,-100,-100,0,0,100,0.00,40.00,0,-999,0,0.00
2013-9-27,54,46,43,-100,-100,-100,0,0,100,0.00,40.00,0,-999,0,0.00
2013-9-28,65,51,36,-100,-100,-100,0,0,100,0.00,40.00,0,-999,0,0.00
2013-9-29,78,60,42,-100,-100,-100,0,0,100,0.00,40.00,0,-999,0,0.00
2013-9-30,83,69,49,-100,-100,-100,0,0,100,0.00,40.00,0,-999,0,0.00
2013-10-2,66,52,40,-100,-100,-100,0,0,100,0.00,40.00,0,-999,0,0.00
2013-10-3,54,51,46,-100,-100,-100,0,0,100,0.00,40.00,0,-999,0,0.00
2013-10-4,45,35,32,-100,-100,-100,0,0,100,0.00,40.00,0,-999,0,0.00
2013-10-5,41,34,32,-100,-100,-100,0,0,100,0.00,40.00,0,-999,0,0.00
2013-10-6,63,47,34,-100,-100,-100,0,0,100,0.00,40.00,0,-999,0,0.00
2013-10-7,80,53,32,-100,-100,-100,0,0,100,0.00,40.00,0,-999,0,0.00
2013-10-8,78,54,41,-100,-100,-100,0,0,100,0.00,40.00,0,-999,0,0.00
2013-10-9,62,50,41,-100,-100,-100,0,0,100,0.00,40.00,0,-999,0,0.00
2013-10-10,55,47,36,-100,-100,-100,0,0,100,0.00,40.00,0,-999,0,0.00
2013-10-11,53,48,43,-100,-100,-100,0,0,100,0.00,40.00,0,-999,0,0.00
2013-10-12,62,47,34,-100,-100,-100,0,0,100,0.00,40.00,0,-999,0,0.00
2013-10-13,66,53,42,-100,-100,-100,0,0,100,0.00,40.00,0,-999,0,0.00
2013-10-14,51,44,36,-100,-100,-100,0,0,100,0.00,40.00,0,-999,0,0.00
2013-10-15,40,38,36,-100,-100,-100,0,0,100,0.00,40.00,0,-999,0,0.00
2013-10-16,54,40,27,-100,-100,-100,0,0,100,0.00,40.00,0,-999,0,0.00
2013-10-17,44,38,32,-100,-100,-100,0,0,100,0.00,40.00,0,-999,0,0.00
2013-10-18,44,36,29,-100,-100,-100,0,0,100,0.00,40.00,0,-999,0,0.00
2013-10-19,62,42,29,-100,-100,-100,0,0,100,0.00,40.00,0,-999,0,0.00
2013-10-20,50,44,36,-100,-100,-100,0,0,100,0.00,40.00,0,-999,0,0.00
2013-10-21,57,43,32,-100,-100,-100,0,0,100,0.00,40.00,0,-999,0,0.00
2013-10-22,64,53,42,-100,-100,-100,0,0,100,0.00,40.00,0,-999,0,0.00
2013-10-23,63,46,32,-100,-100,-100,0,0,100,0.00,40.00,0,-999,0,0.00
2013-10-24,56,40,29,-100,-100,-100,0,0,100,0.00,40.00,0,-999,0,0.00
2013-10-25,68,44,28,-100,-100,-100,0,0,100,0.00,40.00,0,-999,0,0.00
2013-10-26,66,46,32,-100,-100,-100,0,0,100,0.00,40.00,0,-999,0,0.00
2013-10-27,70,52,29,-100,-100,-100,0,0,100,0.00,40.00,0,-999,0,0.00
2013-10-28,45,33,29,-100,-100,-100,0,0,100,0.00,40.00,0,-999,0,0.00
2013-10-29,36,34,31,-100,-100,-100,0,0,100,0.00,40.00,0,-999,0,0.00
2013-10-30,54,39,34,-100,-100,-100,0,0,100,0.00,40.00,0,-999,0,0.00
2013-10-31,55,45,33,-100,-100,-100,0,0,100,0.00,40.00,0,-999,0,0.00
2013-11-1,51,42,29,-100,-100,-100,0,0,100,0.00,40.00,0,-999,0,0.00
2013-11-2,63,43,22,-100,-100,-100,0,0,100,0.00,40.00,0,-999,0,0.00
2013-11-3,62,41,30,-100,-100,-100,0,0,100,0.00,40.00,0,-999,0,0.00
2013-11-4,46,37,31,-100,-100,-100,0,0,100,0.00,40.00,0,-999,0,0.00
2013-11-5,36,32,24,-100,-100,-100,0,0,100,0.00,40.00,0,-999,0,0.00
2013-11-6,50,34,21,-100,-100,-100,0,0,100,0.00,40.00,0,-999,0,0.00
2013-11-7,57,43,25,-100,-100,-100,0,0,100,0.00,40.00,0,-999,0,0.00
2013-11-8,62,46,31,-100,-100,-100,0,0,100,0.00,40.00,0,-999,0,0.00
2013-11-9,56,41,31,-100,-100,-100,0,0,100,0.00,40.00,0,-999,0,0.00
2013-11-10,62,39,27,-100,-100,-100,0,0,100,0.00,40.00,0,-999,0,0.00
2013-11-11,35,30,28,-100,-100,-100,0,0,100,0.00,40.00,0,-999,0,0.00
2013-11-12,49,33,21,-100,-100,-100,0,0,100,0.00,40.00,0,-999,0,0.00
2013-11-13,65,43,27,-100,-100,-100,0,0,100,0.00,40.00,0,-999,0,0.00
2013-11-14,55,46,37,-100,-100,-100,0,0,100,0.00,40.00,0,-999,0,0.00
2013-11-15,61,46,33,-100,-100,-100,0,0,100,0.00,40.00,0,-999,0,0.00
2013-11-16,51,42,30,-100,-100,-100,0,0,100,0.00,40.00,0,-999,0,0.00
2013-11-17,47,39,30,-100,-100,-100,0,0,100,0.00,40.00,0,-999,0,0.00
2013-11-18,61,40,24,-100,-100,-100,0,0,100,0.00,40.00,0,-999,0,0.00
2013-11-19,55,42,21,-100,-100,-100,0,0,100,0.00,40.00,0,-999,0,0.00
2013-11-20,60,46,22,-100,-100,-100,0,0,100,0.00,40.00,0,-999,0,0.00
2013-11-21,21,14,11,-100,-100,-100,0,0,100,0.00,40.00,0,-999,0,0.00
2013-11-22,19,11,-1,-100,-100,-100,0,0,100,0.00,40.00,0,-999,0,0.00
2013-11-23,31,15,5,-100,-100,-100,0,0,100,0.00,40.00,0,-999,0,0.00
2013-11-24,31,23,12,-100,-100,-100,0,0,100,0.00,40.00,0,-999,0,0.00
2013-11-25,44,32,19,-100,-100,-100,0,0,100,0.00,40.00,0,-999,0,0.00
2013-11-26,42,30,22,-100,-100,-100,0,0,100,0.00,40.00,0,-999,0,0.00
2013-11-27,58,34,18,-100,-100,-100,0,0,100,0.00,40.00,0,-999,0,0.00
2013-11-28,46,30,21,-100,-100,-100,0,0,100,0.00,40.00,0,-999,0,0.00
2013-11-29,56,33,21,-100,-100,-100,0,0,100,0.00,40.00,0,-999,0,0.00
2013-11-30,55,37,23,-100,-100,-100,0,0,100,0.00,40.00,0,-999,0,0.00
2013-12-1,54,39,23,-100,-100,-100,0,0,100,0.00,40.00,0,-999,0,0.00
2013-12-2,58,50,38,-100,-100,-100,0,0,100,0.00,40.00,0,-999,0,0.00
2013-12-3,49,27,14,-100,-100,-100,0,0,100,0.00,40.00,0,-999,0,0.00
2013-12-4,12,7,-2,-100,-100,-100,0,0,100,0.00,40.00,0,-999,0,0.00
2013-12-5,10,-2,-12,-100,-100,-100,0,0,100,0.00,40.00,0,-999,0,0.00
2013-12-6,5,-2,-9,-100,-100,-100,0,0,100,0.00,40.00,0,-999,0,0.00
2013-12-7,14,3,-7,-100,-100,-100,0,0,100,0.00,40.00,0,-999,0,0.00
2013-12-8,11,7,1,-100,-100,-100,0,0,100,0.00,40.00,0,-999,0,0.00
2013-12-9,21,9,-9,-100,-100,-100,0,0,100,0.00,40.00,0,-999,0,0.00
2013-12-10,33,26,18,-100,-100,-100,0,0,100,0.00,40.00,0,-999,0,0.00
2013-12-11,34,18,3,-100,-100,-100,0,0,100,0.00,40.00,0,-999,0,0.00
2013-12-12,40,24,8,-100,-100,-100,0,0,100,0.00,40.00,0,-999,0,0.00
2013-12-13,40,30,18,-100,-100,-100,0,0,100,0.00,40.00,0,-999,0,0.00
2013-12-14,43,36,29,-100,-100,-100,0,0,100,0.00,40.00,0,-999,0,0.00
2013-12-15,51,41,33,-100,-100,-100,0,0,100,0.00,40.00,0,-999,0,0.00
2013-12-16,55,44,34,-100,-100,-100,0,0,100,0.00,40.00,0,-999,0,0.00
2013-12-17,58,41,28,-100,-100,-100,0,0,100,0.00,40.00,0,-999,0,0.00
2013-12-18,58,47,35,-100,-100,-100,0,0,100,0.00,40.00,0,-999,0,0.00
2013-12-19,36,26,12,-100,-100,-100,0,0,100,0.00,40.00,0,-999,0,0.00
2013-12-20,32,20,10,-100,-100,-100,0,0,100,0.00,40.00,0,-999,0,0.00
2013-12-21,32,21,12,-100,-100,-100,0,0,100,0.00,40.00,0,-999,0,0.00
2013-12-22,35,25,13,-100,-100,-100,0,0,100,0.00,40.00,0,-999,0,0.00
2013-12-23,21,11,-3,-100,-100,-100,0,0,100,0.00,40.00,0,-999,0,0.00
2013-12-24,39,32,21,-100,-100,-100,0,0,100,0.00,40.00,0,-999,0,0.00
2013-12-25,40,29,21,-100,-100,-100,0,0,100,0.00,40.00,0,-999,0,0.00
2013-12-26,51,37,29,-100,-100,-100,0,0,100,0.00,40.00,0,-999,0,0.00
2013-12-27,59,38,25,-100,-100,-100,0,0,100,0.00,40.00,0,-999,0,0.00
2013-12-28,49,30,14,-100,-100,-100,0,0,100,0.00,40.00,0,-999,0,0.00
2013-12-29,41,23,10,-100,-100,-100,0,0,100,0.00,40.00,0,-999,0,0.00
2013-12-30,43,34,22,-100,-100,-100,0,0,100,0.00,40.00,0,-999,0,0.00
2013-12-31,52,42,29,-100,-100,-100,0,0,100,0.00,40.00,0,-999,0,0.00
2014-1-1,43,30,21,-100,-100,-100,0,0,100,0.00,40.00,0,-999,0,0.00
2014-1-2,37,24,9,-100,-100,-100,0,0,100,0.00,40.00,0,-999,0,0.00